Latest Weather Observations for Geraldton Airport

IDW60801

Issued at 6:43 pm WST Wednesday 22 May 2019 (issued every 10 minutes, with the page automatically refreshed every 10 minutes)

About weather observations | Map of weather stations | Latest weather observations for WA | Other Formats
Station Details ID: 008315 Name: GERALDTON AIRPORT Lat: -28.80 Lon: 114.70 Height: 29.7 m
Data from the previous 72 hours. | See also: Recent months at Geraldton Airport
Date/Time
WST
Temp
°C
App
Temp
°C
Dew
Point
°C
Rel
Hum
%
Delta-T
°C
Wind Press
QNH
hPa
Press
MSL
hPa
Rain since
9am
mm
Dir  Spd
km/h
Gust
km/h
Spd
kts
Gust
kts
22/06:30pm 16.4 15.3 12.0 75 2.4 SSE 9 11 5 6 1020.7 1020.7 0.0
22/06:00pm 17.0 15.5 11.9 72 2.8 S 11 11 6 6 1020.5 1020.5 0.0
22/05:30pm 18.2 16.4 12.0 67 3.4 S 13 15 7 8 1020.2 1020.2 0.0
22/05:00pm 20.0 17.5 12.3 61 4.3 S 17 20 9 11 1020.1 1020.1 0.0
22/04:30pm 21.0 18.1 12.4 58 4.9 S 19 24 10 13 1019.9 1019.9 0.0
22/04:00pm 21.3 18.2 11.6 54 5.4 SSW 19 24 10 13 1019.7 1019.7 0.0
22/03:30pm 21.7 18.3 11.4 52 5.7 SSW 20 24 11 13 1019.4 1019.4 0.0
22/03:00pm 22.4 19.7 11.8 51 5.9 SSW 17 24 9 13 1019.0 1019.0 0.0
22/02:30pm 22.7 20.1 12.0 50 6.0 SW 17 20 9 11 1019.0 1019.0 0.0
22/02:00pm 22.9 20.5 12.5 52 5.9 SW 17 20 9 11 1019.0 1019.0 0.0
22/01:30pm 23.1 21.7 12.1 50 6.2 SW 11 19 6 10 1018.9 1018.9 0.0
22/01:00pm 23.0 20.4 12.0 50 6.2 SW 17 22 9 12 1019.3 1019.3 0.0
22/12:30pm 22.9 20.8 11.3 48 6.5 SSW 13 19 7 10 1019.7 1019.7 0.0
22/12:00pm 22.2 20.4 11.0 49 6.2 SW 11 15 6 8 1020.3 1020.3 0.0
22/11:30am 21.5 19.1 10.0 48 6.2 WSW 13 19 7 10 1020.8 1020.8 0.0
22/11:00am 21.6 20.1 10.4 49 6.1 WSW 9 13 5 7 1021.5 1021.4 0.0
22/10:30am 20.5 19.8 10.0 51 5.7 SE 4 11 2 6 1021.8 1021.7 0.0
22/10:00am 19.2 18.0 9.7 54 5.0 ESE 6 11 3 6 1022.0 1021.9 0.0
22/09:30am 17.8 16.6 9.4 58 4.4 ESE 6 9 3 5 1022.2 1022.1 0.0
22/09:00am 17.4 17.2 10.3 63 3.8 NNW 2 7 1 4 1022.4 1022.3 -
22/08:30am 15.9 14.5 9.6 66 3.3 NNE 7 9 4 5 1022.2 1022.1 -
22/08:00am 14.2 12.3 9.0 71 2.6 NNE 9 13 5 7 1021.9 1021.8 -
22/07:30am 12.0 8.3 7.9 76 2.0 NE 17 19 9 10 1021.5 1021.4 -
22/07:00am 12.2 9.7 8.3 77 1.9 NE 11 13 6 7 1021.2 1021.1 -
22/06:30am 10.7 8.4 7.6 81 1.5 NE 9 11 5 6 1021.2 1021.1 -
22/06:00am 9.5 6.2 6.4 81 1.4 NNE 13 15 7 8 1021.1 1021.0 -
22/05:30am 9.6 7.0 6.0 78 1.7 ESE 9 11 5 6 1020.8 1020.8 -
22/05:00am 10.0 7.6 7.1 82 1.4 E 9 11 5 6 1020.6 1020.6 -
22/04:30am 9.2 7.1 6.5 83 1.3 E 7 11 4 6 1021.1 1021.0 -
22/04:00am 9.4 6.9 6.5 82 1.3 SE 9 11 5 6 1021.1 1021.0 -
22/03:30am 10.4 8.7 7.6 83 1.3 S 6 7 3 4 1021.5 1021.4 -
22/03:00am 10.1 9.5 7.2 82 1.4 CALM 0 0 0 0 1021.4 1021.3 0.0
22/02:30am 11.5 10.1 8.9 84 1.3 SE 6 7 3 4 1021.4 1021.3 -
22/02:00am 11.0 9.9 8.4 84 1.3 SSE 4 7 2 4 1021.5 1021.4 -
22/01:30am 10.7 8.6 8.3 85 1.2 S 9 11 5 6 1021.6 1021.5 -
22/01:00am 11.6 9.4 9.2 85 1.2 SE 11 15 6 8 1021.4 1021.3 -
22/12:30am 11.9 10.3 10.1 89 0.9 SE 9 11 5 6 1021.5 1021.4 -
22/12:00am 10.8 9.3 9.2 90 0.8 S 7 9 4 5 1021.6 1021.5 -
 
Date/Time
WST
Temp
°C
App
Temp
°C
Dew
Point
°C
Rel
Hum
%
Delta-T
°C
Wind Press
QNH
hPa
Press
MSL
hPa
Rain since
9am
mm
Dir  Spd
km/h
Gust
km/h
Spd
kts
Gust
kts
21/11:30pm 10.9 9.4 9.3 90 0.8 SE 7 11 4 6 1021.7 1021.6 -
21/11:00pm 10.8 8.9 8.9 88 0.9 SSE 9 9 5 5 1021.8 1021.7 -
21/10:30pm 11.6 10.2 9.5 87 1.1 SE 7 9 4 5 1021.9 1021.8 -
21/10:00pm 12.1 11.0 10.0 87 1.1 ESE 6 6 3 3 1021.8 1021.7 -
21/09:30pm 12.5 11.8 10.2 86 1.2 SE 4 6 2 3 1021.9 1021.8 -
21/09:00pm 12.6 11.3 9.8 83 1.4 SE 7 7 4 4 1021.6 1021.5 0.0
21/08:30pm 13.0 10.9 9.6 80 1.7 SSE 11 11 6 6 1021.6 1021.5 -
21/08:00pm 13.8 11.8 10.0 78 2.0 SSE 11 13 6 7 1021.6 1021.5 -
21/07:30pm 14.4 12.3 9.8 74 2.4 SSE 11 13 6 7 1021.6 1021.5 -
21/07:00pm 15.5 13.3 10.7 73 2.5 SSE 13 15 7 8 1021.5 1021.4 -
21/06:30pm 16.5 14.0 11.0 70 3.0 SSE 15 17 8 9 1021.2 1021.1 -
21/06:00pm 17.9 15.1 11.5 66 3.5 SSE 17 20 9 11 1020.9 1020.9 -
21/05:30pm 18.9 16.1 11.2 61 4.2 S 17 22 9 12 1020.7 1020.7 -
21/05:00pm 20.1 15.8 10.8 55 5.1 S 24 28 13 15 1020.6 1020.6 -
21/04:30pm 21.0 17.4 10.5 51 5.7 S 20 30 11 16 1020.6 1020.6 -
21/04:00pm 21.9 17.9 10.4 48 6.3 SSW 22 30 12 16 1020.4 1020.4 -
21/03:30pm 22.6 18.3 9.4 43 7.1 S 22 32 12 17 1020.2 1020.2 -
21/03:00pm 22.5 18.6 9.3 43 7.1 S 20 32 11 17 1020.3 1020.3 -
21/02:30pm 23.8 20.5 8.2 37 8.3 S 15 24 8 13 1020.5 1020.5 -
21/02:00pm 22.5 18.4 7.9 39 7.6 SSE 19 28 10 15 1020.7 1020.7 -
21/01:30pm 22.7 19.7 7.7 38 7.8 SE 13 22 7 12 1020.8 1020.8 -
21/01:00pm 22.4 18.5 7.0 37 7.9 ESE 17 26 9 14 1021.2 1021.1 -
21/12:30pm 21.9 17.6 7.7 40 7.4 SE 20 28 11 15 1021.5 1021.4 -
21/12:00pm 21.5 17.4 7.7 41 7.1 SE 19 24 10 13 1022.1 1022.0 -
21/09:00am 15.0 13.3 13.5 91 0.8 NNE 15 20 8 11 1023.5 1023.4 0.4
21/08:30am 13.1 11.0 12.5 96 0.3 NNE 15 19 8 10 1023.3 1023.2 0.4
21/08:17am 12.2 10.2 11.6 96 0.3 NNE 13 17 7 9 1023.2 1023.1 0.4
21/08:00am 11.0 7.6 10.4 96 0.3 NNE 19 24 10 13 1023.0 1022.9 0.4
21/07:30am 9.9 6.0 9.4 97 0.2 NNE 20 24 11 13 1022.7 1022.6 0.4
21/07:10am 9.4 5.9 8.9 97 0.2 NE 17 20 9 11 1022.5 1022.4 0.4
21/07:00am 9.3 6.2 8.7 96 0.3 NE 15 19 8 10 1022.3 1022.2 0.4
21/06:30am 9.4 5.9 8.8 96 0.3 NNE 17 20 9 11 1021.9 1021.8 0.4
21/06:00am 10.0 7.0 9.4 96 0.3 NNE 15 19 8 10 1021.7 1021.6 0.4
21/05:30am 10.2 7.3 9.6 96 0.3 NNE 15 17 8 9 1021.6 1021.5 0.4
21/05:00am 10.5 7.7 9.9 96 0.3 NNE 15 17 8 9 1021.3 1021.2 0.4
21/04:59am 10.5 7.7 9.9 96 0.3 NNE 15 17 8 9 1021.3 1021.2 0.4
21/04:53am 10.4 7.5 9.8 96 0.3 NNE 15 17 8 9 1021.3 1021.2 0.4
21/04:42am 10.3 7.4 9.7 96 0.3 NNE 15 17 8 9 1021.2 1021.1 0.4
21/04:30am 10.4 7.5 9.8 96 0.3 NE 15 17 8 9 1021.2 1021.1 0.4
21/04:23am 10.2 7.3 9.6 96 0.3 NE 15 17 8 9 1021.2 1021.1 0.4
21/04:00am 10.7 7.5 10.1 96 0.3 NNE 17 19 9 10 1021.3 1021.2 0.2
21/03:30am 11.1 8.4 10.5 96 0.3 NNE 15 17 8 9 1021.3 1021.2 0.2
21/03:00am 11.6 8.3 11.0 96 0.3 NNE 19 20 10 11 1021.4 1021.3 0.2
21/02:30am 11.5 8.5 10.7 95 0.4 NNE 17 19 9 10 1021.4 1021.3 0.2
21/02:00am 11.6 9.0 10.7 94 0.5 NNE 15 17 8 9 1021.1 1021.0 0.2
21/01:30am 12.3 10.3 11.5 95 0.4 NNE 13 15 7 8 1020.9 1020.9 0.2
21/01:00am 11.9 9.7 10.8 93 0.6 NE 13 13 7 7 1020.9 1020.9 0.2
21/12:30am 12.7 10.7 11.6 93 0.6 NNE 13 17 7 9 1021.1 1021.0 0.2
21/12:00am 12.9 11.8 11.8 93 0.6 NE 9 11 5 6 1021.2 1021.1 0.2
 
Date/Time
WST
Temp
°C
App
Temp
°C
Dew
Point
°C
Rel
Hum
%
Delta-T
°C
Wind Press
QNH
hPa
Press
MSL
hPa
Rain since
9am
mm
Dir  Spd
km/h
Gust
km/h
Spd
kts
Gust
kts
20/11:30pm 12.9 10.9 11.5 91 0.7 NE 13 15 7 8 1021.3 1021.2 0.2
20/11:00pm 13.4 12.7 11.5 88 1.0 NE 6 9 3 5 1021.3 1021.2 0.2
20/10:30pm 15.3 16.2 13.0 86 1.3 CALM 0 0 0 0 1021.2 1021.1 0.2
20/10:00pm 17.0 18.3 14.1 83 1.6 CALM 0 0 0 0 1021.3 1021.2 0.2
20/09:30pm 17.4 17.6 14.1 81 1.9 NE 6 7 3 4 1021.2 1021.1 0.2
20/09:00pm 17.6 17.3 14.3 81 1.9 ENE 9 11 5 6 1020.9 1020.9 0.2
20/08:30pm 18.2 18.4 14.1 77 2.4 ESE 6 9 3 5 1020.9 1020.9 0.2
20/08:00pm 18.4 18.1 14.3 77 2.4 S 9 13 5 7 1020.7 1020.7 0.2
20/07:30pm 18.1 17.2 13.8 76 2.5 SSW 11 13 6 7 1020.5 1020.5 0.2
20/07:00pm 18.5 16.7 14.4 77 2.4 S 17 24 9 13 1020.2 1020.2 0.2
20/06:30pm 18.6 18.1 14.9 79 2.2 SSE 11 13 6 7 1020.1 1020.1 0.2
20/06:00pm 18.7 17.8 14.8 78 2.3 SSE 13 17 7 9 1019.8 1019.8 0.2
20/05:30pm 19.0 17.7 14.7 76 2.5 S 15 19 8 10 1019.7 1019.7 0.2
20/05:00pm 19.3 17.1 15.0 76 2.5 S 20 24 11 13 1019.5 1019.5 0.2
20/04:30pm 19.5 18.0 15.2 76 2.5 SSW 17 22 9 12 1019.4 1019.4 0.2
20/04:11pm 19.5 17.5 15.4 77 2.4 SSW 20 26 11 14 1019.1 1019.1 0.2
20/04:00pm 19.7 17.7 15.4 76 2.5 S 20 26 11 14 1019.0 1019.0 0.2
20/03:30pm 19.8 17.2 15.9 78 2.3 SSW 24 30 13 16 1018.8 1018.8 0.2
20/03:00pm 20.2 18.1 16.2 78 2.4 S 22 28 12 15 1018.4 1018.4 0.2
20/02:45pm 20.5 18.1 16.3 77 2.5 S 24 30 13 16 1018.3 1018.3 0.2
20/02:39pm 20.4 17.9 16.2 77 2.5 S 24 30 13 16 1018.3 1018.3 0.2
20/02:30pm 20.7 18.4 16.7 78 2.4 S 24 32 13 17 1018.2 1018.2 0.2
20/02:00pm 19.8 17.2 16.8 83 1.8 SSW 26 32 14 17 1018.3 1018.3 0.2
20/01:55pm 19.5 17.3 16.9 85 1.6 SSW 24 30 13 16 1018.3 1018.3 0.2
20/01:49pm 19.8 17.9 17.6 87 1.4 SSW 24 30 13 16 1018.3 1018.3 0.2
20/01:30pm 19.0 16.9 17.1 89 1.2 SSW 24 32 13 17 1018.3 1018.3 0.2
20/01:21pm 19.3 17.5 17.8 91 0.9 SSW 24 30 13 16 1018.2 1018.2 0.2
20/01:11pm 19.6 18.9 18.3 92 0.8 S 19 24 10 13 1018.1 1018.1 0.2
20/01:08pm 19.5 19.1 18.0 91 0.9 S 17 22 9 12 1018.1 1018.1 0.2
20/01:00pm 19.1 18.1 17.6 91 0.9 SSW 19 28 10 15 1018.2 1018.2 0.2
20/12:45pm 19.4 17.8 17.5 89 1.2 SSW 22 28 12 15 1018.3 1018.3 0.0
20/12:30pm 20.4 19.0 17.0 81 2.1 SSW 20 28 11 15 1018.2 1018.2 0.0
20/12:00pm 21.8 20.5 17.2 75 2.8 SSW 20 26 11 14 1018.3 1018.3 0.0
20/11:39am 21.6 20.5 17.2 76 2.7 SSW 19 28 10 15 1018.4 1018.4 0.0
20/11:30am 21.5 20.4 17.3 77 2.6 SSW 19 24 10 13 1018.5 1018.5 0.0
20/11:14am 21.1 19.9 17.1 78 2.4 SSW 19 22 10 12 1018.7 1018.7 0.0
20/11:00am 21.3 20.8 17.7 80 2.2 SSW 17 22 9 12 1018.7 1018.7 0.0
20/10:43am 20.5 20.7 17.7 84 1.7 SW 13 19 7 10 1018.9 1018.9 0.0
20/10:30am 20.7 19.4 18.1 85 1.6 WSW 22 32 12 17 1018.8 1018.8 0.0
20/10:00am 23.7 22.2 16.7 65 4.3 NW 20 26 11 14 1018.2 1018.2 0.0
20/09:30am 22.1 21.9 16.6 71 3.3 N 13 20 7 11 1018.3 1018.3 0.0
20/09:00am 19.8 17.7 13.7 68 3.5 N 17 20 9 11 1017.9 1017.9 0.0
20/08:30am 17.6 14.8 12.7 73 2.7 NNE 19 20 10 11 1017.8 1017.8 0.0
20/08:00am 15.4 12.4 11.8 79 1.9 NNE 19 22 10 12 1017.6 1017.6 0.0
20/07:30am 15.0 11.6 11.4 79 1.9 NNE 20 24 11 13 1017.1 1017.1 0.0
20/07:00am 15.0 11.8 11.4 79 1.9 NNE 19 24 10 13 1016.8 1016.8 0.0
20/06:30am 14.9 11.5 11.3 79 1.9 NNE 20 24 11 13 1016.4 1016.4 0.0
20/06:00am 14.3 10.4 10.7 79 1.9 NNE 22 26 12 14 1015.9 1015.9 0.0
20/05:30am 14.1 10.2 10.7 80 1.8 NNE 22 28 12 15 1015.8 1015.8 0.0
20/05:00am 13.7 9.7 10.3 80 1.8 NNE 22 26 12 14 1015.8 1015.8 0.0
20/04:30am 13.4 9.8 10.0 80 1.8 NNE 19 22 10 12 1016.0 1016.0 0.0
20/04:00am 13.2 9.7 10.2 82 1.6 NNE 19 24 10 13 1016.0 1016.0 0.0
20/03:30am 12.0 8.0 9.0 82 1.5 NNE 20 24 11 13 1015.5 1015.5 0.0
20/03:00am 12.9 9.7 9.9 82 1.5 NNE 17 20 9 11 1016.1 1016.1 0.0
20/02:30am 12.7 9.2 10.1 84 1.3 NNE 19 24 10 13 1015.7 1015.7 0.0
20/02:00am 12.2 7.9 9.2 82 1.5 NNE 22 28 12 15 1015.1 1015.1 0.0
20/01:30am 12.3 7.9 9.1 81 1.6 NNE 22 30 12 16 1015.4 1015.4 0.0
20/01:00am 11.9 7.4 8.7 81 1.6 NNE 22 26 12 14 1015.3 1015.3 0.0
20/12:30am 11.4 6.7 7.9 79 1.7 NNE 22 28 12 15 1015.6 1015.6 0.0
20/12:00am 11.6 7.3 7.9 78 1.8 NNE 20 24 11 13 1016.0 1016.0 0.0
 
Date/Time
WST
Temp
°C
App
Temp
°C
Dew
Point
°C
Rel
Hum
%
Delta-T
°C
Wind Press
QNH
hPa
Press
MSL
hPa
Rain since
9am
mm
Dir  Spd
km/h
Gust
km/h
Spd
kts
Gust
kts
19/11:30pm 11.8 7.7 7.7 76 2.0 NNE 19 22 10 12 1016.4 1016.4 0.0
19/11:00pm 12.1 8.4 8.0 76 2.0 NNE 17 20 9 11 1016.6 1016.6 0.0
19/10:30pm 12.0 8.6 7.7 75 2.1 NNE 15 17 8 9 1016.8 1016.8 0.0
19/10:00pm 12.0 8.6 7.5 74 2.2 NNE 15 17 8 9 1016.7 1016.7 0.0
19/09:30pm 12.6 8.9 8.1 74 2.2 NNE 17 19 9 10 1016.9 1016.9 0.0
19/09:00pm 11.5 8.4 7.2 75 2.1 NNE 13 15 7 8 1016.9 1016.9 0.0
19/08:30pm 11.4 8.2 6.9 74 2.1 N 13 13 7 7 1016.6 1016.6 0.0
19/08:00pm 11.4 9.5 6.5 72 2.3 N 6 13 3 7 1016.5 1016.5 0.0
19/07:30pm 14.3 12.8 8.5 68 2.9 N 6 7 3 4 1016.1 1016.1 0.0
19/07:00pm 14.7 13.3 8.9 68 2.9 N 6 7 3 4 1015.9 1015.9 0.0

Other formats

Comma delimited format used in spreadsheet applications
http://www.bom.gov.au/fwo/IDW60801/IDW60801.94403.axf

JavaScript Object Notation format (JSON) in row-major order
http://www.bom.gov.au/fwo/IDW60801/IDW60801.94403.json

Data quality

Most of these data are generated automatically and are frequently updated. Quality checks on data are not normally performed. It is possible for incorrect values to appear. Refer to information at About Latest Weather Observations and please check the disclaimer before using these data.